createdAt,value
2022-11-20T12:21:23.014Z,30.23
2022-11-20T12:24:07.707Z,31.65
2022-11-20T12:26:50.542Z,29.10
2022-11-20T12:29:19.184Z,32.33
2022-11-20T12:32:01.180Z,31.50
2022-11-20T12:34:58.772Z,33.17
2022-11-20T12:37:48.198Z,30.55
2022-11-20T12:40:45.293Z,31.83
2022-11-20T12:43:43.683Z,35.72
2022-11-20T12:46:31.145Z,32.47
2022-11-20T12:49:26.597Z,31.20
2022-11-20T12:52:13.629Z,31.17
2022-11-20T12:54:49.221Z,32.58
2022-11-20T12:57:20.343Z,31.98
2022-11-20T13:00:14.895Z,33.00
2022-11-20T13:02:56.331Z,31.73
2022-11-20T13:05:27.498Z,33.35
2022-11-20T13:07:54.863Z,33.25
2022-11-20T13:10:39.884Z,33.65
2022-11-20T13:13:21.322Z,33.78
2022-11-20T13:15:57.286Z,35.30
2022-11-20T13:18:24.261Z,35.22
2022-11-20T13:20:52.122Z,34.42
2022-11-20T13:23:28.468Z,35.45
2022-11-20T13:28:37.201Z,39.00
2022-11-20T13:31:03.855Z,40.65
2022-11-20T13:33:33.495Z,46.03
2022-11-20T13:36:02.818Z,50.38
2022-11-20T13:38:41.478Z,49.63
2022-11-20T13:41:24.518Z,51.72
2022-11-20T13:43:53.033Z,50.33
2022-11-20T13:46:25.370Z,53.58
2022-11-20T13:48:54.509Z,51.45
2022-11-20T13:51:45.580Z,51.45
2022-11-20T13:54:28.508Z,52.38
2022-11-20T13:57:28.670Z,51.72
2022-11-20T14:00:11.368Z,51.97
2022-11-20T14:02:38.229Z,53.78
2022-11-20T14:05:06.276Z,51.55
2022-11-20T14:07:38.827Z,52.80
2022-11-20T14:10:06.315Z,51.80
2022-11-20T14:12:34.830Z,52.20
2022-11-20T14:15:01.748Z,52.67
2022-11-20T14:17:34.422Z,51.22
2022-11-20T14:20:05.176Z,50.90
2022-11-20T14:22:31.975Z,51.38
2022-11-20T14:25:04.600Z,53.40
2022-11-20T14:27:35.809Z,52.13
2022-11-20T14:30:03.191Z,49.97
2022-11-20T14:32:32.168Z,48.20
2022-11-20T14:35:08.861Z,51.58
2022-11-20T14:37:39.691Z,46.38
2022-11-20T14:40:22.805Z,46.03
2022-11-20T14:42:49.733Z,45.72
2022-11-20T14:45:17.228Z,46.05
2022-11-20T14:47:44.666Z,45.30
2022-11-20T14:50:21.613Z,48.50
2022-11-20T14:52:58.598Z,45.50
2022-11-20T14:55:29.110Z,47.10
2022-11-20T14:57:58.382Z,45.45
2022-11-20T15:00:25.854Z,47.63
2022-11-20T15:02:53.634Z,45.30
2022-11-20T15:05:23.826Z,44.83
2022-11-20T15:07:53.802Z,44.53
2022-11-20T15:10:24.665Z,41.20
2022-11-20T15:12:55.307Z,41.20
2022-11-20T15:15:28.988Z,41.42
2022-11-20T15:17:56.102Z,39.47
2022-11-20T15:20:30.974Z,40.03
2022-11-20T15:22:57.985Z,36.72
2022-11-20T15:25:25.629Z,39.33
2022-11-20T15:27:56.933Z,39.53
2022-11-20T15:30:24.449Z,40.42
2022-11-20T15:32:51.171Z,38.92
2022-11-20T15:35:17.887Z,42.30
2022-11-20T15:37:45.005Z,40.72
2022-11-20T15:40:12.368Z,42.60
2022-11-20T15:42:39.034Z,38.75
2022-11-20T15:45:07.087Z,39.10
2022-11-20T15:47:36.297Z,37.45
2022-11-20T15:50:03.042Z,40.63
2022-11-20T15:52:40.194Z,40.20
2022-11-20T15:55:11.539Z,42.45
2022-11-20T15:57:38.242Z,39.53
2022-11-20T16:00:05.471Z,41.17
2022-11-20T16:02:32.162Z,40.45
2022-11-20T16:04:58.812Z,38.08
2022-11-20T16:07:25.533Z,38.70
2022-11-20T16:09:52.296Z,38.90
2022-11-20T16:12:38.844Z,38.80
2022-11-20T16:15:21.306Z,36.50
2022-11-20T16:17:47.937Z,35.65
2022-11-20T16:20:14.582Z,36.50
2022-11-20T16:22:44.468Z,38.15
2022-11-20T16:25:11.105Z,39.25
2022-11-20T16:27:37.795Z,39.17
2022-11-20T16:30:04.787Z,42.10
2022-11-20T16:32:32.300Z,43.22
2022-11-20T16:34:58.977Z,42.95
2022-11-20T16:37:25.609Z,42.67
2022-11-20T16:39:52.247Z,42.60
2022-11-20T16:42:18.944Z,41.53
2022-11-20T16:44:47.255Z,43.33
2022-11-20T16:47:13.968Z,43.20
2022-11-20T16:49:40.627Z,40.55
2022-11-20T16:52:07.872Z,41.15
2022-11-20T16:54:34.698Z,41.47
2022-11-20T16:57:01.369Z,41.42
2022-11-20T16:59:27.963Z,39.17
2022-11-20T17:01:54.776Z,42.47
2022-11-20T17:04:21.739Z,42.67
2022-11-20T17:06:48.590Z,44.97
2022-11-20T17:09:15.413Z,44.30
2022-11-20T17:11:42.510Z,46.70
2022-11-20T17:14:11.264Z,44.85
2022-11-20T17:16:38.678Z,44.83
2022-11-20T17:19:05.693Z,38.88
2022-11-20T17:21:35.930Z,37.88
2022-11-20T17:24:04.674Z,36.88
2022-11-20T17:26:31.988Z,35.63
2022-11-20T17:29:05.887Z,37.90
2022-11-20T17:31:34.426Z,39.70
2022-11-20T17:34:01.761Z,40.20
2022-11-20T17:36:29.926Z,38.63
2022-11-20T17:38:56.579Z,37.00
2022-11-20T17:41:25.477Z,40.42
2022-11-20T17:43:55.083Z,40.40
2022-11-20T17:46:24.521Z,43.75
2022-11-20T17:48:51.482Z,40.55
2022-11-20T17:51:22.666Z,41.55
2022-11-20T17:53:51.887Z,47.42
2022-11-20T17:56:33.869Z,41.05
2022-11-20T17:59:03.984Z,42.92
2022-11-20T18:01:30.646Z,42.97
2022-11-20T18:03:57.491Z,42.10
2022-11-20T18:06:26.332Z,42.13
2022-11-20T18:08:53.180Z,44.97
2022-11-20T18:11:23.024Z,45.40
2022-11-20T18:14:08.292Z,45.22
2022-11-20T18:16:38.694Z,42.33
2022-11-20T18:19:05.434Z,37.78
2022-11-20T18:21:32.307Z,32.92
2022-11-20T18:23:58.974Z,35.90
2022-11-20T18:26:26.509Z,35.55
2022-11-20T18:28:55.483Z,37.55
2022-11-20T18:31:22.333Z,36.33
2022-11-20T18:33:49.604Z,36.92
2022-11-20T18:36:22.013Z,38.10
2022-11-20T18:38:52.159Z,38.65
2022-11-20T18:41:36.212Z,36.55
2022-11-20T18:44:20.798Z,38.88
2022-11-20T18:46:47.847Z,39.67
2022-11-20T18:49:15.152Z,39.90
2022-11-20T18:51:44.185Z,37.38
2022-11-20T18:54:13.444Z,37.50
2022-11-20T18:56:40.511Z,35.40
2022-11-20T18:59:10.314Z,32.67
2022-11-20T19:01:41.195Z,31.65
2022-11-20T19:04:10.190Z,32.65
2022-11-20T19:06:38.459Z,33.03
2022-11-20T19:09:06.331Z,30.75
2022-11-20T19:11:33.063Z,29.27
2022-11-20T19:13:59.773Z,29.48
2022-11-20T19:16:26.419Z,11.02
2022-11-20T19:18:54.179Z,8.07
2022-11-20T19:21:25.049Z,8.90
2022-11-20T19:23:54.323Z,6.82
2022-11-20T19:26:21.989Z,6.07
2022-11-20T19:28:49.429Z,6.25
2022-11-20T19:31:24.293Z,5.65
2022-11-20T19:33:57.959Z,5.28
2022-11-20T19:36:27.481Z,4.82
2022-11-20T19:38:54.982Z,6.70
2022-11-20T19:41:32.563Z,8.88
2022-11-20T19:44:01.662Z,11.63
2022-11-20T19:46:30.131Z,11.98
2022-11-20T19:48:57.278Z,16.50
2022-11-20T19:51:28.028Z,17.27
2022-11-20T19:53:56.680Z,16.27
2022-11-20T19:56:24.624Z,15.38
2022-11-20T19:58:53.213Z,11.65
2022-11-20T20:01:24.958Z,9.25
2022-11-20T20:03:51.995Z,6.97
2022-11-20T20:06:22.707Z,8.05
2022-11-20T20:09:06.334Z,5.93
2022-11-20T20:11:34.319Z,5.72
2022-11-20T20:14:04.434Z,7.18
2022-11-20T20:16:31.113Z,7.97
2022-11-20T20:19:01.356Z,8.45
2022-11-20T20:21:30.596Z,12.02
2022-11-20T20:23:58.936Z,11.10
2022-11-20T20:26:27.912Z,9.45
2022-11-20T20:28:54.961Z,8.68
2022-11-20T20:31:24.894Z,8.00
2022-11-20T20:33:51.631Z,7.28
2022-11-20T20:36:20.135Z,6.57
2022-11-20T20:38:46.826Z,6.80
2022-11-20T20:41:14.330Z,6.28
2022-11-20T20:43:56.761Z,6.38
2022-11-20T20:46:24.246Z,7.20
2022-11-20T20:48:54.431Z,7.70
2022-11-20T20:51:22.446Z,6.80
2022-11-20T20:53:50.360Z,5.82
2022-11-20T20:56:18.002Z,5.25
2022-11-20T20:58:45.070Z,5.80
2022-11-20T21:01:14.075Z,5.50
2022-11-20T21:03:41.275Z,4.97
2022-11-20T21:06:09.987Z,5.18
2022-11-20T21:08:40.360Z,5.28
2022-11-20T21:11:09.078Z,5.03
2022-11-20T21:13:37.360Z,5.03
2022-11-20T21:16:05.281Z,4.78
2022-11-20T21:18:32.718Z,4.80
2022-11-20T21:21:14.708Z,5.35
2022-11-20T21:23:42.546Z,6.15
2022-11-20T21:26:09.811Z,5.85
2022-11-20T21:28:37.797Z,4.57
2022-11-20T21:31:09.541Z,4.47
2022-11-20T21:33:38.141Z,5.15
2022-11-20T21:36:05.653Z,5.65
2022-11-20T21:38:32.293Z,6.15
2022-11-20T21:40:59.203Z,14.30
2022-11-20T21:43:26.136Z,19.67
2022-11-20T21:45:53.125Z,9.98
2022-11-20T21:48:21.231Z,10.63
2022-11-20T21:50:48.309Z,14.82
2022-11-20T21:53:14.894Z,20.35
2022-11-20T21:55:41.540Z,17.83
2022-11-20T21:58:08.174Z,11.82
2022-11-20T22:00:34.874Z,13.70
2022-11-20T22:03:01.681Z,13.93
2022-11-20T22:05:28.313Z,11.15
2022-11-20T22:07:54.951Z,8.20
2022-11-20T22:10:21.612Z,9.77
2022-11-20T22:12:48.269Z,6.60
2022-11-20T22:15:27.979Z,5.47
2022-11-20T22:18:16.896Z,5.50
2022-11-20T22:20:43.711Z,4.60
2022-11-20T22:23:10.346Z,5.13
2022-11-20T22:25:37.023Z,4.53
2022-11-20T22:28:03.710Z,4.90
2022-11-20T22:30:30.342Z,4.70
2022-11-20T22:32:57.073Z,4.90
2022-11-20T22:35:23.777Z,5.30
2022-11-20T22:37:50.540Z,4.53
2022-11-20T22:40:17.269Z,5.47
2022-11-20T22:42:46.153Z,5.20
2022-11-20T22:45:14.106Z,4.35
2022-11-20T22:47:40.731Z,4.70
2022-11-20T22:50:07.661Z,4.25
2022-11-20T22:52:34.308Z,3.92
2022-11-20T22:55:00.890Z,3.90
2022-11-20T22:57:27.539Z,4.32
2022-11-20T22:59:54.177Z,4.07
2022-11-20T23:02:20.787Z,7.38
2022-11-20T23:04:47.448Z,6.90
2022-11-20T23:07:14.092Z,5.95
2022-11-20T23:09:40.726Z,6.13
2022-11-20T23:12:07.701Z,5.50
2022-11-20T23:14:34.340Z,5.65
2022-11-20T23:17:00.982Z,5.40
2022-11-20T23:19:27.594Z,5.72
2022-11-20T23:21:54.191Z,6.15
2022-11-20T23:24:20.883Z,5.57
2022-11-20T23:26:48.000Z,5.72
2022-11-20T23:29:14.665Z,5.90
2022-11-20T23:31:41.400Z,5.75
2022-11-20T23:34:08.050Z,5.82
2022-11-20T23:36:34.682Z,5.55
2022-11-20T23:39:01.567Z,5.45
2022-11-20T23:41:28.324Z,5.53
2022-11-20T23:43:54.945Z,4.97
2022-11-20T23:46:22.063Z,5.50
2022-11-20T23:48:48.996Z,6.18
2022-11-20T23:51:15.645Z,5.35
2022-11-20T23:53:42.332Z,5.40
2022-11-20T23:56:11.591Z,5.28
2022-11-20T23:58:39.301Z,5.15
